Time;durP1;ratioP1;P1;durP2;ratioP2;P2;SDS_P1;SDS_P2;PMS_P1;PMS_P2;Temp;Humidity;BMP_temperature;BMP_pressure;BME280_temperature;BME280_humidity;BME280_pressure;Samples;Min_cycle;Max_cycle;Signal;HPM_P1;HPM_P2
2021/12/08 00:00:22;;;;;;;51.10;18.40;;;-1.60;99.90;;;-4.04;96.33;99624.97;10543615;27;96982;-82
2021/12/08 00:05:26;;;;;;;48.10;16.67;;;-1.60;99.90;;;-4.03;96.09;99614.50;10532745;27;96499;-81
2021/12/08 00:15:38;;;;;;;74.77;21.93;;;-1.60;99.90;;;-4.06;96.55;99630.28;10554370;27;96470;-82
2021/12/08 00:20:45;;;;;;;51.20;19.13;;;-1.60;99.90;;;-4.15;96.42;99624.75;10574545;27;96828;-82
2021/12/08 00:25:49;;;;;;;51.47;17.73;;;-1.60;99.90;;;-4.23;96.67;99638.19;10563288;27;96735;-82
2021/12/08 00:30:57;;;;;;;58.87;18.93;;;-1.70;99.90;;;-4.32;96.63;99636.09;10545262;27;97943;-82
2021/12/08 00:36:03;;;;;;;52.80;16.90;;;-1.80;99.90;;;-4.35;97.03;99636.31;10534431;27;96520;-82
2021/12/08 00:41:08;;;;;;;50.43;16.33;;;-1.80;99.90;;;-4.38;96.96;99636.47;10514702;27;96854;-82
2021/12/08 00:46:11;;;;;;;62.63;19.30;;;-1.80;99.90;;;-4.40;96.95;99646.09;10553822;27;96496;-82
2021/12/08 00:51:14;;;;;;;61.43;22.53;;;-1.90;99.90;;;-4.44;96.83;99652.38;10536019;27;96710;-82
2021/12/08 00:56:17;;;;;;;50.30;19.37;;;-1.90;99.90;;;-4.49;96.92;99662.19;10527262;27;96718;-82
2021/12/08 01:01:22;;;;;;;46.23;16.73;;;-2.00;99.90;;;-4.59;96.79;99665.28;10535075;27;96537;-82
2021/12/08 01:06:25;;;;;;;45.60;16.43;;;-2.00;99.90;;;-4.65;96.95;99650.06;10568771;27;96664;-82
2021/12/08 01:11:28;;;;;;;51.53;16.70;;;-2.10;99.90;;;-4.66;96.94;99653.59;10522863;27;96761;-82
2021/12/08 01:16:31;;;;;;;48.30;18.43;;;-2.10;99.90;;;-4.68;97.10;99647.66;10539318;27;98111;-82
2021/12/08 01:21:36;;;;;;;52.03;19.63;;;-2.10;99.90;;;-4.74;97.27;99634.16;10530037;27;96466;-82
2021/12/08 01:26:39;;;;;;;55.30;18.03;;;-2.20;99.90;;;-4.80;97.58;99643.13;10535505;27;96437;-82
2021/12/08 01:31:43;;;;;;;61.47;20.43;;;-2.20;99.90;;;-4.86;97.65;99627.91;10542304;27;97545;-82
2021/12/08 01:36:47;;;;;;;50.97;16.87;;;-2.30;99.90;;;-4.92;97.25;99607.50;10573300;27;96414;-82
2021/12/08 01:41:52;;;;;;;45.57;17.57;;;-2.30;99.90;;;-5.00;97.42;99605.34;10528934;27;96550;-82
2021/12/08 01:46:55;;;;;;;54.30;17.10;;;-2.40;99.90;;;-5.06;97.48;99616.06;10543523;27;96464;-83
2021/12/08 01:51:59;;;;;;;51.77;16.20;;;-2.50;99.90;;;-5.14;97.52;99602.69;10539136;27;96600;-82
2021/12/08 01:57:02;;;;;;;42.07;14.43;;;-2.60;99.90;;;-5.20;97.73;99603.84;10529259;27;96914;-82
2021/12/08 02:02:06;;;;;;;34.67;12.73;;;-2.60;99.90;;;-5.24;97.48;99593.75;10543606;27;98064;-82
2021/12/08 02:07:09;;;;;;;56.23;16.97;;;-2.70;99.90;;;-5.25;97.87;99605.03;10553359;27;96449;-82
2021/12/08 02:12:12;;;;;;;54.47;16.80;;;-2.70;99.90;;;-5.30;97.94;99592.31;10532657;27;97258;-82
2021/12/08 02:17:15;;;;;;;54.37;15.70;;;-2.80;99.90;;;-5.35;97.77;99581.38;10513406;27;96758;-82
2021/12/08 02:22:18;;;;;;;42.50;16.20;;;-2.80;99.90;;;-5.40;97.97;99575.59;10529970;27;97109;-82
2021/12/08 02:27:21;;;;;;;44.73;15.60;;;-2.90;99.90;;;-5.45;98.06;99562.91;10513840;27;97132;-82
2021/12/08 02:46:40;;;;;;;44.77;15.37;;;-2.90;99.90;;;-5.50;98.10;99577.03;10533372;27;96692;-82
2021/12/08 02:48:35;;;;;;;55.87;18.37;;;-3.10;99.90;;;-5.63;98.32;99602.72;10548902;27;98115;-81
2021/12/08 02:53:38;;;;;;;53.10;17.43;;;-3.10;99.90;;;-5.64;98.24;99603.63;10561934;27;96615;-81
2021/12/08 02:58:41;;;;;;;62.77;19.60;;;-3.10;99.90;;;-5.62;98.22;99600.97;10569039;27;96654;-81
2021/12/08 03:03:45;;;;;;;44.73;13.37;;;-3.10;99.90;;;-5.64;98.67;99603.63;10527842;27;96607;-81
2021/12/08 03:08:48;;;;;;;45.17;13.93;;;-3.10;99.90;;;-5.63;98.68;99602.72;10543053;27;96531;-81
2021/12/08 03:14:12;;;;;;;52.57;14.63;;;-3.20;99.90;;;-5.56;98.88;99600.66;10560114;27;96539;-81
2021/12/08 03:19:18;;;;;;;47.87;15.77;;;-3.10;99.90;;;-5.48;99.00;99591.53;10557775;27;96579;-81
2021/12/08 03:24:32;;;;;;;47.80;15.17;;;-3.10;99.90;;;-5.43;98.85;99586.13;10551425;27;96612;-81
2021/12/08 03:30:01;;;;;;;45.67;14.40;;;-3.00;99.90;;;-5.41;99.13;99589.47;10546756;27;96505;-81
2021/12/08 03:35:09;;;;;;;44.83;12.80;;;-3.00;99.90;;;-5.43;98.67;99581.78;10533632;27;96478;-82
2021/12/08 03:40:18;;;;;;;35.33;11.33;;;-3.00;99.90;;;-5.41;99.00;99584.28;10550667;27;96910;-81
2021/12/08 03:45:32;;;;;;;34.67;10.67;;;-3.00;99.90;;;-5.39;98.91;99572.09;10537498;27;96624;-81
2021/12/08 03:50:40;;;;;;;32.17;9.50;;;-3.00;99.90;;;-5.41;98.94;99581.69;10547178;27;96633;-81
2021/12/08 03:55:47;;;;;;;23.47;9.33;;;-3.00;99.90;;;-5.46;99.31;99607.00;10547114;27;96497;-81
2021/12/08 04:00:51;;;;;;;32.03;11.03;;;-3.00;99.90;;;-5.52;99.11;99602.97;10539361;27;96433;-81
2021/12/08 04:05:58;;;;;;;27.20;10.30;;;-3.00;99.90;;;-5.57;99.08;99605.00;10534228;27;96499;-81
2021/12/08 04:11:06;;;;;;;22.63;8.17;;;-3.10;99.90;;;-5.66;99.00;99598.53;10530672;27;96976;-81
2021/12/08 04:16:11;;;;;;;37.73;11.23;;;-3.10;99.90;;;-5.73;99.09;99610.13;10541585;27;96770;-81
2021/12/08 04:21:15;;;;;;;29.47;9.07;;;-3.20;99.90;;;-5.78;99.25;99609.53;10515727;27;96424;-81
2021/12/08 04:26:55;;;;;;;28.87;10.17;;;-3.30;99.90;;;-5.86;99.15;99609.09;10538516;27;96565;-81
2021/12/08 04:32:00;;;;;;;25.33;9.57;;;-3.30;99.90;;;-5.93;99.24;99600.00;10544983;27;96546;-81
2021/12/08 04:37:14;;;;;;;33.43;10.23;;;-3.40;99.90;;;-6.02;99.43;99597.88;10557371;27;96442;-81
2021/12/08 04:42:26;;;;;;;31.80;12.03;;;-3.40;99.90;;;-6.05;99.01;99613.56;10558318;27;96536;-81
2021/12/08 04:47:37;;;;;;;36.57;12.50;;;-3.50;99.90;;;-6.09;99.37;99624.97;10552495;27;96763;-81
2021/12/08 04:52:55;;;;;;;35.53;12.83;;;-3.60;99.90;;;-6.15;99.25;99613.19;10577279;27;96513;-82
2021/12/08 05:08:55;;;;;;;57.37;19.30;;;-3.60;99.90;;;-6.21;99.51;99618.66;10540025;27;96532;-81
2021/12/08 05:14:27;;;;;;;41.37;16.10;;;-3.70;99.90;;;-6.20;99.58;99608.22;10541462;27;96533;-81
2021/12/08 05:19:32;;;;;;;56.97;21.13;;;-3.70;99.90;;;-6.15;99.32;99612.34;10535336;27;96737;-81
2021/12/08 05:24:41;;;;;;;54.30;21.90;;;-3.60;99.90;;;-6.11;99.49;99603.53;10553390;27;96423;-81
2021/12/08 05:30:21;;;;;;;59.67;19.23;;;-3.60;99.90;;;-6.13;99.68;99601.00;10551891;27;96581;-81
2021/12/08 05:35:25;;;;;;;71.70;24.53;;;-3.60;99.90;;;-6.13;99.61;99589.81;10534589;27;97938;-81
2021/12/08 05:40:51;;;;;;;104.67;33.10;;;-3.60;99.90;;;-6.09;99.58;99594.75;10543131;27;97615;-81
2021/12/08 05:45:55;;;;;;;225.73;80.25;;;-3.60;99.90;;;-6.03;99.90;99591.03;10523704;27;97872;-82
2021/12/08 05:51:07;;;;;;;219.90;68.47;;;-3.50;99.90;;;-5.89;100.00;99598.06;10529996;27;97033;-81
2021/12/08 05:56:10;;;;;;;90.55;24.10;;;-3.50;99.90;;;-5.72;100.00;99600.59;10564672;27;96594;-82
2021/12/08 06:01:25;;;;;;;102.67;24.03;;;-3.30;99.90;;;-5.57;100.00;99594.63;10543438;27;99143;-81
2021/12/08 06:06:29;;;;;;;108.47;28.87;;;-3.20;99.90;;;-5.45;100.00;99604.34;10569125;27;96564;-82
2021/12/08 06:11:32;;;;;;;122.63;41.80;;;-3.10;99.90;;;-5.37;100.00;99598.75;10528979;27;97165;-82
2021/12/08 06:16:40;;;;;;;74.07;25.67;;;-3.00;99.90;;;-5.38;100.00;99610.03;10545510;27;96607;-81
2021/12/08 06:21:43;;;;;;;63.70;22.00;;;-3.00;99.90;;;-5.42;100.00;99617.09;10549466;27;96854;-82
2021/12/08 06:26:48;;;;;;;63.77;19.77;;;-3.00;99.90;;;-5.48;100.00;99616.59;10577482;27;97971;-81
2021/12/08 06:31:58;;;;;;;60.30;23.63;;;-3.00;99.90;;;-5.54;100.00;99615.16;10556007;27;96653;-81
2021/12/08 06:37:15;;;;;;;52.43;16.43;;;-3.10;99.90;;;-5.61;100.00;99611.22;10565463;27;96590;-82
2021/12/08 06:42:25;;;;;;;66.97;23.93;;;-3.10;99.90;;;-5.63;100.00;99620.00;10549321;27;96543;-82
2021/12/08 06:47:31;;;;;;;77.07;25.50;;;-3.20;99.90;;;-5.57;100.00;99611.94;10560986;27;96506;-82
2021/12/08 06:52:38;;;;;;;76.23;25.33;;;-3.20;99.90;;;-5.42;100.00;99613.69;10548428;27;96833;-81
2021/12/08 06:58:09;;;;;;;76.23;24.80;;;-3.10;99.90;;;-5.22;100.00;99623.84;10569494;27;96615;-81
2021/12/08 07:08:23;;;;;;;56.30;19.93;;;-2.90;99.90;;;-4.97;100.00;99609.56;10551636;27;96577;-82
2021/12/08 07:13:31;;;;;;;48.40;18.07;;;-2.80;99.90;;;-4.75;100.00;99606.59;10543962;27;96647;-82
2021/12/08 07:19:09;;;;;;;62.77;25.17;;;-2.70;99.90;;;-4.54;100.00;99604.56;10555315;27;98433;-81
2021/12/08 07:24:22;;;;;;;31.17;13.13;;;-2.50;99.90;;;-4.27;100.00;99605.56;10554154;27;97721;-82
2021/12/08 07:29:30;;;;;;;43.83;20.90;;;-2.30;99.90;;;-3.79;100.00;99601.00;10550989;27;96596;-80
2021/12/08 07:34:35;;;;;;;39.17;16.13;;;-2.00;99.90;;;-3.33;100.00;99595.63;10576276;27;96611;-82
2021/12/08 07:39:45;;;;;;;36.57;17.80;;;-1.70;99.90;;;-2.88;100.00;99594.50;10553655;27;96620;-82
2021/12/08 07:44:53;;;;;;;38.40;18.07;;;-1.40;99.90;;;-2.40;100.00;99591.44;10541331;27;96542;-83
2021/12/08 07:50:20;;;;;;;36.40;17.70;;;-1.00;99.90;;;-1.91;100.00;99597.66;10560122;27;96551;-82
2021/12/08 07:55:32;;;;;;;35.87;18.87;;;-0.60;99.90;;;-1.50;100.00;99598.34;10533148;27;96542;-82
2021/12/08 08:00:48;;;;;;;67.55;29.55;;;-0.20;99.90;;;-1.16;99.54;99594.25;10515587;27;96497;-82
2021/12/08 08:05:54;;;;;;;69.07;30.23;;;0.10;99.90;;;-0.91;98.36;99596.75;10541134;27;96495;-82
2021/12/08 08:11:11;;;;;;;72.30;33.00;;;0.40;99.90;;;-0.65;97.35;99607.13;10527978;27;97369;-83
2021/12/08 08:16:23;;;;;;;81.57;37.83;;;0.70;99.90;;;-0.50;96.28;99606.00;10546312;27;96559;-82
2021/12/08 08:21:30;;;;;;;66.30;31.10;;;1.00;99.90;;;-0.39;94.78;99610.44;10533536;27;96543;-82
2021/12/08 08:26:36;;;;;;;50.33;25.10;;;1.10;99.90;;;-0.23;92.97;99607.53;10551576;27;96970;-83
2021/12/08 08:31:59;;;;;;;50.60;23.93;;;1.30;99.90;;;0.03;92.60;99621.25;10535722;27;98197;-82
2021/12/08 08:37:05;;;;;;;46.93;23.77;;;1.60;99.90;;;0.31;90.81;99620.03;10541018;27;96962;-83
2021/12/08 08:42:16;;;;;;;52.63;26.50;;;2.00;99.90;;;0.59;89.73;99614.31;10531945;27;96686;-83
2021/12/08 08:47:24;;;;;;;;;;;2.40;99.90;;;0.59;88.31;99613.47;10547760;27;96789;-83
2021/12/08 08:52:53;;;;;;;67.03;30.67;;;2.60;99.90;;;0.10;87.95;99617.22;10518909;27;97039;-82
2021/12/08 08:58:19;;;;;;;61.27;27.90;;;2.40;99.90;;;-0.38;88.06;99620.75;10576243;27;96882;-83
2021/12/08 09:03:27;;;;;;;72.30;33.90;;;2.00;99.90;;;-0.34;88.86;99619.59;10541202;27;96654;-83
2021/12/08 09:08:34;;;;;;;75.47;36.00;;;2.00;99.90;;;0.19;88.20;99609.53;10534515;27;96793;-83
2021/12/08 09:13:52;;;;;;;87.00;40.20;;;2.20;99.90;;;0.74;87.30;99587.00;10553971;27;98105;-83
2021/12/08 09:19:23;;;;;;;64.13;29.93;;;2.60;99.90;;;1.00;85.97;99586.72;10546915;27;96503;-83
2021/12/08 09:24:37;;;;;;;61.73;28.67;;;3.00;99.90;;;0.79;85.11;99584.84;10555018;27;96542;-83
2021/12/08 09:29:49;;;;;;;64.43;29.67;;;3.10;99.90;;;0.40;84.80;99578.31;10554347;27;96811;-82
2021/12/08 09:35:06;;;;;;;64.78;31.10;;;2.90;99.90;;;0.07;85.31;99573.06;10557522;27;97894;-82
2021/12/08 09:40:09;;;;;;;76.87;36.43;;;2.60;99.90;;;-0.17;86.08;99570.53;10586321;27;96534;-82
2021/12/08 09:45:24;;;;;;;65.43;28.57;;;2.40;99.90;;;-0.35;86.70;99577.94;10560405;27;97548;-82
2021/12/08 09:50:27;;;;;;;61.97;28.70;;;2.10;99.90;;;-0.50;87.35;99566.00;10548631;27;97494;-82
2021/12/08 09:55:30;;;;;;;49.90;22.17;;;2.00;99.90;;;-0.61;87.73;99559.78;10535884;27;96522;-82
2021/12/08 10:00:41;;;;;;;52.97;23.83;;;1.80;99.90;;;-0.68;88.17;99552.53;10535056;27;96559;-82
2021/12/08 10:05:45;;;;;;;57.13;25.63;;;1.70;99.90;;;-0.72;88.24;99545.88;10556827;27;96661;-82
2021/12/08 10:10:48;;;;;;;42.80;20.03;;;1.60;99.90;;;-0.74;88.90;99551.22;10547627;27;98221;-82
2021/12/08 10:15:51;;;;;;;46.73;20.33;;;1.60;99.90;;;-0.76;89.36;99534.84;10531855;27;96717;-86
2021/12/08 10:20:56;;;;;;;44.60;18.73;;;1.50;99.90;;;-0.77;89.37;99529.75;10560357;27;96544;-82
2021/12/08 10:26:11;;;;;;;40.43;19.20;;;1.50;99.90;;;-0.76;89.72;99526.19;10542554;27;96546;-83
2021/12/08 10:43:57;;;;;;;48.03;20.27;;;1.50;99.90;;;-0.41;90.22;99513.97;10517782;27;96674;-82
2021/12/08 10:54:45;;;;;;;43.53;20.20;;;2.30;99.90;;;0.32;89.72;99502.28;10527653;27;96659;-82
2021/12/08 11:00:03;;;;;;;37.70;20.10;;;2.50;99.90;;;0.37;89.42;99488.88;10589438;27;96425;-82
2021/12/08 11:05:31;;;;;;;47.33;22.23;;;2.60;99.90;;;0.36;88.91;99489.78;10551581;27;96819;-82
2021/12/08 11:10:39;;;;;;;57.00;25.23;;;2.70;99.90;;;0.34;88.70;99484.69;10556495;27;96537;-82
2021/12/08 11:15:43;;;;;;;55.67;25.30;;;2.70;99.90;;;0.32;88.46;99472.72;10573077;27;96480;-82
2021/12/08 11:20:54;;;;;;;55.90;24.93;;;2.70;99.90;;;0.30;88.47;99458.91;10518033;27;96708;-82
2021/12/08 11:25:57;;;;;;;50.67;24.13;;;2.60;99.90;;;0.25;88.84;99457.50;10562277;27;96575;-82
2021/12/08 11:31:13;;;;;;;62.03;25.93;;;2.60;99.90;;;0.25;88.63;99454.06;10568169;27;97048;-82
2021/12/08 11:36:19;;;;;;;49.83;22.97;;;2.60;99.90;;;0.27;88.80;99457.38;10522003;27;96502;-82
2021/12/08 11:41:36;;;;;;;59.20;27.43;;;2.60;99.90;;;0.30;88.84;99458.91;10546020;27;96719;-82
2021/12/08 11:46:54;;;;;;;61.87;27.60;;;2.60;99.90;;;0.36;88.62;99461.91;10564632;27;96508;-82
2021/12/08 11:52:06;;;;;;;64.20;31.90;;;2.60;99.90;;;0.40;88.24;99458.06;10553074;27;96453;-81
2021/12/08 11:57:36;;;;;;;59.30;26.87;;;2.70;99.90;;;0.45;88.17;99448.09;10550603;27;96788;-82
2021/12/08 12:03:02;;;;;;;67.23;29.20;;;2.70;99.90;;;0.50;88.28;99452.97;10545589;27;96710;-82
2021/12/08 12:08:13;;;;;;;63.77;32.37;;;2.80;99.90;;;0.59;88.22;99433.91;10542068;27;96648;-81
2021/12/08 12:13:17;;;;;;;52.47;25.50;;;2.90;99.90;;;0.64;87.47;99444.84;10526213;27;96572;-81
2021/12/08 12:18:23;;;;;;;57.33;25.97;;;2.90;99.90;;;0.69;86.55;99437.44;10560697;27;97515;-81
2021/12/08 12:23:45;;;;;;;55.57;27.83;;;3.00;99.90;;;0.76;85.68;99433.38;10531715;27;96887;-81
2021/12/08 12:29:57;;;;;;;48.85;24.60;;;3.00;99.90;;;0.79;85.44;99427.91;10564247;27;96493;-81
2021/12/08 12:35:23;;;;;;;47.47;23.80;;;3.10;99.90;;;0.82;84.71;99415.53;10338849;28;96854;-81
2021/12/08 12:40:48;;;;;;;48.40;24.47;;;3.10;99.90;;;0.83;84.08;99418.03;10544592;27;96620;-81
2021/12/08 12:46:07;;;;;;;49.80;23.23;;;3.10;99.90;;;0.80;83.73;99408.66;10553068;27;96596;-81
2021/12/08 12:51:14;;;;;;;51.03;23.13;;;3.10;99.90;;;0.78;84.09;99407.97;10549858;27;97604;-81
2021/12/08 12:56:35;;;;;;;55.70;25.80;;;3.10;99.90;;;0.77;83.76;99408.06;10536640;27;98375;-81
2021/12/08 13:01:44;;;;;;;48.73;23.63;;;3.10;99.90;;;0.77;83.59;99402.81;10545053;27;98044;-81
2021/12/08 13:06:52;;;;;;;50.13;23.40;;;3.00;99.90;;;0.76;83.56;99394.16;10538689;27;96500;-81
2021/12/08 13:12:06;;;;;;;55.57;25.90;;;3.00;99.90;;;0.75;83.86;99400.34;10558454;27;96734;-81
2021/12/08 13:17:25;;;;;;;48.00;21.30;;;3.00;99.90;;;0.72;83.40;99398.00;10574035;27;96559;-81
2021/12/08 13:23:00;;;;;;;53.43;22.27;;;3.00;99.90;;;0.67;83.54;99405.38;10555093;27;96472;-81
2021/12/08 13:28:26;;;;;;;44.03;20.07;;;3.00;99.90;;;0.64;83.87;99400.38;10530290;27;96535;-81
2021/12/08 13:33:38;;;;;;;46.27;21.73;;;2.90;99.90;;;0.59;84.01;99410.38;10548892;27;98111;-81
2021/12/08 13:38:42;;;;;;;38.73;18.87;;;2.90;99.90;;;0.53;84.19;99405.63;10560134;27;96634;-81
2021/12/08 13:43:49;;;;;;;41.40;20.60;;;2.80;99.90;;;0.47;84.40;99403.53;10529402;27;97461;-80
2021/12/08 13:49:18;;;;;;;45.37;21.20;;;2.80;99.90;;;0.39;84.50;99411.16;10542637;27;96915;-81
2021/12/08 13:54:36;;;;;;;47.97;20.23;;;2.70;99.90;;;0.29;84.62;99407.59;10573206;27;96577;-80
2021/12/08 13:59:45;;;;;;;58.17;23.83;;;2.70;99.90;;;0.14;84.93;99414.88;10529819;27;96586;-81
2021/12/08 14:04:48;;;;;;;55.90;25.03;;;2.50;99.90;;;-0.02;85.45;99416.06;10573960;27;96719;-81
2021/12/08 14:10:06;;;;;;;47.63;19.77;;;2.40;99.90;;;-0.17;85.74;99416.44;10553403;27;96658;-81
2021/12/08 14:15:50;;;;;;;53.23;21.67;;;2.20;99.90;;;-0.37;85.96;99408.34;10529233;27;96426;-81
2021/12/08 14:21:00;;;;;;;71.00;28.97;;;2.10;99.90;;;-0.59;86.34;99416.19;10544969;27;96551;-81
2021/12/08 14:26:12;;;;;;;60.57;26.00;;;1.80;99.90;;;-0.81;86.69;99403.91;10575257;27;96580;-81
2021/12/08 14:31:16;;;;;;;;;;;1.60;99.90;;;-1.02;87.58;99416.78;10590018;27;96508;-81
2021/12/08 14:36:40;;;;;;;60.97;25.60;;;1.40;99.90;;;-1.21;87.86;99424.28;10575995;27;96844;-81
2021/12/08 14:41:44;;;;;;;59.97;25.53;;;1.20;99.90;;;-1.40;88.31;99420.41;10540500;27;96518;-81
2021/12/08 14:46:58;;;;;;;61.00;23.97;;;1.00;99.90;;;-1.54;88.99;99428.38;10542088;27;96775;-81
2021/12/08 14:52:09;;;;;;;141.17;47.97;;;0.80;99.90;;;-1.64;89.43;99424.78;10561828;27;96616;-81
2021/12/08 14:57:20;;;;;;;191.10;67.60;;;0.70;99.90;;;-1.71;89.77;99428.75;10540888;27;96421;-81
2021/12/08 15:03:03;;;;;;;139.30;53.20;;;0.60;99.90;;;-1.80;nan;99408.56;10595726;27;96466;-81
2021/12/08 15:08:08;;;;;;;142.27;53.72;;;0.50;99.90;;;-1.85;90.71;99408.06;10522098;27;96684;-81
2021/12/08 15:13:22;;;;;;;135.83;50.67;;;0.40;99.90;;;-1.92;91.26;99403.31;10557189;27;98125;-82
2021/12/08 15:18:28;;;;;;;117.80;45.87;;;0.30;99.90;;;-2.00;91.58;99408.19;10545436;27;96857;-81
2021/12/08 15:24:00;;;;;;;136.33;52.30;;;0.20;99.90;;;-2.06;91.85;99405.19;10563755;27;96861;-82
2021/12/08 15:29:19;;;;;;;163.33;62.87;;;0.10;99.90;;;-2.10;91.81;99411.53;10547934;27;96761;-81
2021/12/08 15:34:31;;;;;;;166.70;62.83;;;0.00;99.90;;;-2.10;92.08;99414.16;10542142;27;96564;-81
2021/12/08 15:39:37;;;;;;;174.47;66.60;;;0.00;99.90;;;-2.10;92.40;99409.75;10552988;27;96599;-81
2021/12/08 15:44:42;;;;;;;143.17;61.47;;;0.00;99.90;;;-2.13;92.59;99414.38;10547380;27;96592;-82
2021/12/08 15:49:45;;;;;;;119.97;54.43;;;-0.10;99.90;;;-2.16;92.97;99425.81;10576949;27;96486;-84
2021/12/08 15:54:48;;;;;;;121.87;59.30;;;-0.10;99.90;;;-2.22;93.23;99419.28;10544518;27;96455;-82
2021/12/08 15:59:52;;;;;;;122.97;56.07;;;-0.10;99.90;;;-2.25;93.35;99422.09;10555266;27;96504;-82
2021/12/08 16:05:08;;;;;;;115.43;49.30;;;-0.20;99.90;;;-2.28;93.30;99418.84;10562732;27;96467;-82
2021/12/08 16:10:28;;;;;;;107.30;45.80;;;-0.20;99.90;;;-2.32;93.57;99426.06;10563810;27;96467;-82
2021/12/08 16:15:41;;;;;;;71.03;30.65;;;-0.30;99.90;;;-2.36;93.56;99411.59;10538388;27;96619;-82
2021/12/08 16:20:44;;;;;;;97.93;41.13;;;-0.30;99.90;;;-2.37;93.76;99409.09;10544263;27;96479;-82
2021/12/08 16:25:48;;;;;;;102.90;47.87;;;-0.30;99.90;;;-2.38;94.01;99426.47;10557409;27;96951;-82
2021/12/08 16:30:53;;;;;;;93.10;38.17;;;-0.30;99.90;;;-2.42;93.91;99445.81;10553098;27;96715;-82
2021/12/08 16:35:56;;;;;;;86.40;39.90;;;-0.40;99.90;;;-2.42;94.37;99438.03;10535379;27;96555;-82
2021/12/08 16:46:21;;;;;;;97.67;40.93;;;-0.30;99.90;;;-2.42;94.65;99436.25;10541498;27;96564;-82
2021/12/08 16:51:24;;;;;;;86.40;33.60;;;-0.40;99.90;;;-2.44;94.61;99427.72;10532144;27;96575;-82
2021/12/08 16:56:28;;;;;;;76.40;33.47;;;-0.40;99.90;;;-2.45;94.71;99435.63;10531787;27;97314;-83
2021/12/08 17:01:31;;;;;;;76.13;32.27;;;-0.40;99.90;;;-2.47;94.67;99437.50;10558051;27;96462;-81
2021/12/08 17:06:35;;;;;;;60.70;26.00;;;-0.40;99.90;;;-2.51;94.77;99451.66;10551542;27;96514;-82
2021/12/08 17:11:42;;;;;;;63.33;28.83;;;-0.40;99.90;;;-2.54;94.84;99446.66;10514615;27;96538;-82
2021/12/08 17:16:45;;;;;;;70.67;32.13;;;-0.50;99.90;;;-2.57;95.23;99441.66;10545587;27;97521;-82
2021/12/08 17:21:48;;;;;;;60.50;28.63;;;-0.50;99.90;;;-2.60;95.16;99447.91;10536848;27;96544;-84
2021/12/08 17:26:51;;;;;;;72.30;28.50;;;-0.50;99.90;;;-2.61;95.13;99459.25;10531137;27;96442;-83
2021/12/08 17:31:54;;;;;;;81.17;33.83;;;-0.50;99.90;;;-2.65;95.13;99443.94;10522164;27;96523;-82
2021/12/08 17:36:57;;;;;;;110.90;39.80;;;-0.50;99.90;;;-2.70;95.40;99446.84;10546405;27;96539;-82
2021/12/08 17:42:00;;;;;;;111.70;43.43;;;-0.60;99.90;;;-2.74;95.26;99443.63;10571625;27;96545;-82
2021/12/08 17:47:04;;;;;;;96.70;35.87;;;-0.60;99.90;;;-2.77;95.24;99440.38;10572242;27;96944;-82
2021/12/08 17:52:07;;;;;;;90.27;34.63;;;-0.60;99.90;;;-2.82;95.53;99438.13;10536725;27;96577;-82
2021/12/08 17:57:10;;;;;;;89.40;36.87;;;-0.70;99.90;;;-2.80;95.17;99435.41;10533869;27;97643;-83
2021/12/08 18:02:15;;;;;;;86.50;37.40;;;-0.60;99.90;;;-2.78;95.25;99430.91;10549718;27;96805;-82
2021/12/08 18:07:18;;;;;;;95.10;37.13;;;-0.60;99.90;;;-2.75;95.52;99439.38;10548751;27;96526;-83
2021/12/08 18:12:22;;;;;;;105.30;42.60;;;-0.60;99.90;;;-2.71;95.73;99439.97;10535644;27;98525;-78
2021/12/08 18:17:25;;;;;;;108.40;38.57;;;-0.50;99.90;;;-2.62;95.85;99433.34;10562196;27;96769;-83
2021/12/08 18:22:43;;;;;;;103.27;41.80;;;-0.40;99.90;;;-2.55;95.85;99448.44;10537808;27;96727;-85
2021/12/08 18:27:47;;;;;;;94.53;38.33;;;-0.40;99.90;;;-2.48;95.71;99448.84;10559376;27;96527;-84
2021/12/08 18:32:51;;;;;;;89.33;35.30;;;-0.30;99.90;;;-2.45;96.08;99444.28;10547090;27;96518;-84
2021/12/08 18:38:06;;;;;;;75.60;30.93;;;-0.20;99.90;;;-2.39;95.92;99443.03;10532895;27;96604;-84
2021/12/08 18:43:10;;;;;;;86.13;39.43;;;-0.20;99.90;;;-2.39;95.84;99450.84;10536405;27;96643;-85
2021/12/08 18:48:14;;;;;;;70.03;32.77;;;-0.10;99.90;;;-2.38;95.81;99451.66;10518882;27;96556;-83
2021/12/08 18:53:18;;;;;;;74.67;29.97;;;-0.10;99.90;;;-2.38;96.08;99454.25;10540253;27;96569;-84
2021/12/08 18:58:21;;;;;;;78.60;33.07;;;-0.10;99.90;;;-2.35;96.00;99441.88;10536065;27;96377;-84
2021/12/08 19:03:25;;;;;;;67.67;29.67;;;-0.10;99.90;;;-2.31;96.00;99439.91;10544666;27;96520;-85
2021/12/08 19:08:28;;;;;;;67.50;28.00;;;0.00;99.90;;;-2.25;96.25;99442.06;10562540;27;96454;-85
2021/12/08 19:13:32;;;;;;;50.23;22.63;;;0.00;99.90;;;-2.19;96.10;99447.69;10576162;27;96505;-83
2021/12/08 19:18:35;;;;;;;61.80;23.53;;;0.10;99.90;;;-2.10;96.37;99447.97;10537704;27;97395;-83
2021/12/08 19:23:39;;;;;;;62.43;25.33;;;0.20;99.90;;;-2.01;96.35;99444.75;10541031;27;96468;-83
2021/12/08 19:28:43;;;;;;;55.50;23.23;;;0.20;99.90;;;-1.93;96.03;99445.03;10559785;27;96409;-83
2021/12/08 19:33:54;;;;;;;60.27;25.63;;;0.30;99.90;;;-1.86;96.45;99437.63;10551197;27;96445;-83
2021/12/08 19:38:59;;;;;;;63.43;26.47;;;0.40;99.90;;;-1.78;96.46;99437.94;10519614;27;96552;-83
2021/12/08 19:44:05;;;;;;;70.97;28.07;;;0.50;99.90;;;-1.72;96.27;99424.50;10564529;27;96429;-83
2021/12/08 19:49:13;;;;;;;56.20;23.23;;;0.60;99.90;;;-1.67;96.72;99430.22;10566681;27;96521;-83
2021/12/08 19:54:18;;;;;;;56.20;24.53;;;0.60;99.90;;;-1.64;96.32;99429.97;10534515;27;96505;-83
2021/12/08 19:59:21;;;;;;;52.97;23.80;;;0.70;99.90;;;-1.58;96.55;99436.53;10534091;27;96466;-83
2021/12/08 20:04:27;;;;;;;60.20;25.40;;;0.70;99.90;;;-1.55;96.48;99438.94;10517039;27;97908;-83
2021/12/08 20:09:30;;;;;;;49.30;21.53;;;0.70;99.90;;;-1.52;96.16;99434.31;10520552;27;96595;-83
2021/12/08 20:14:33;;;;;;;59.87;22.50;;;0.80;99.90;;;-1.48;96.34;99440.97;10516446;27;96503;-83
2021/12/08 20:19:37;;;;;;;55.73;24.77;;;0.80;99.90;;;-1.45;96.27;99437.31;10539754;27;96541;-83
2021/12/08 20:24:40;;;;;;;49.43;22.80;;;0.80;99.90;;;-1.42;96.43;99447.53;10516239;27;96465;-85
2021/12/08 20:29:43;;;;;;;54.20;22.53;;;0.90;99.90;;;-1.41;96.35;99439.59;10532849;27;96421;-83
2021/12/08 20:34:48;;;;;;;50.93;21.27;;;0.90;99.90;;;-1.37;96.07;99429.78;10532871;27;96509;-85
2021/12/08 20:39:53;;;;;;;59.53;24.70;;;0.90;99.90;;;-1.37;96.33;99435.81;10516229;27;96478;-83
2021/12/08 20:44:56;;;;;;;53.13;23.07;;;0.90;99.90;;;-1.32;96.20;99438.06;10542154;27;96528;-83
2021/12/08 20:49:59;;;;;;;51.50;21.47;;;0.90;99.90;;;-1.30;96.36;99430.16;10551525;27;96980;-84
2021/12/08 20:55:04;;;;;;;45.47;19.97;;;1.00;99.90;;;-1.28;96.17;99436.09;10514861;27;96511;-83
2021/12/08 21:00:20;;;;;;;46.13;20.90;;;1.00;99.90;;;-1.26;96.60;99426.38;10531508;27;96413;-84
2021/12/08 21:05:23;;;;;;;55.10;22.53;;;1.10;99.90;;;-1.22;96.07;99412.19;10535348;27;96518;-84
2021/12/08 21:10:27;;;;;;;51.40;21.93;;;1.00;99.90;;;-1.21;96.42;99400.81;10557413;27;96435;-84
2021/12/08 21:15:32;;;;;;;54.90;24.30;;;1.10;99.90;;;-1.19;96.55;99411.97;10547767;27;98021;-84
2021/12/08 21:20:38;;;;;;;52.27;23.47;;;1.10;99.90;;;-1.17;96.15;99402.25;10515000;27;96542;-83
2021/12/08 21:25:42;;;;;;;54.50;23.23;;;1.10;99.90;;;-1.15;96.58;99402.97;10528663;27;96873;-83
2021/12/08 21:30:48;;;;;;;50.77;22.47;;;1.10;99.90;;;-1.14;96.39;99387.22;10553723;27;96844;-83
2021/12/08 21:35:53;;;;;;;48.13;21.33;;;1.20;99.90;;;-1.13;96.31;99401.09;10544637;27;96573;-83
2021/12/08 21:41:05;;;;;;;50.40;20.93;;;1.20;99.90;;;-1.11;96.52;99405.25;10535331;27;96863;-84
2021/12/08 21:46:09;;;;;;;45.40;22.30;;;1.20;99.90;;;-1.08;96.32;99378.94;10530878;27;96552;-84
2021/12/08 21:51:13;;;;;;;53.07;22.70;;;1.20;99.90;;;-1.07;96.50;99374.56;10541619;27;96848;-84
2021/12/08 21:56:19;;;;;;;55.07;22.67;;;1.20;99.90;;;-1.04;96.20;99378.72;10568249;27;96824;-84
2021/12/08 22:01:22;;;;;;;56.63;23.03;;;1.20;99.90;;;-1.04;96.31;99387.38;10536702;27;96482;-83